logo
Search for airport 
image banner adimage banner adimage banner ad
image banner ad

SBAC - Aeroporto Regional De Canoa Quebrada Dragão Do Mar

Located in Aracati, Brazil

ICAO - SBAC, IATA -

Data provided by Airmate  

General information

Coordinates: S4°34'7" W37°48'17"
Elevation is 118 feet MSL.
Magnetic variation is -20.75° East
View others Airports in Ceará

Operational data

Special qualification required
Current time UTC:
Current local time:
Weather at : - ( 0 km )
METAR: CYMT 281921Z AUTO 33013G26KT 4SM +RA BR FEW010 SCT015 BKN020 OVC034 11/10 A2951 RMK PCPN 1.8MM PAST HR SLP002 DENSITY ALT 1600FT
View NOTAMs / SUP AIP / TFR affecting this airport [VIEW]
Communications frequencies: [VIEW]

Runways:

RWY identifierQFULength (ft)Width (ft)SurfaceLDA (ft)
096299919ASPH
276299919ASPH

Airport contact information

Address: Aracati Brazil

Satellite view of SBAC